Aeroporto :







RITROVATECI SU...

 
LOGIN :

Iscrizione | Disclaimer

   EN    FR    IT 

 









Sommario :    VFR   VFR Marginale   IFR   IFR Intensivo   IFR Molto Intensivo
Visibilità : 
Base nubi : 
>= 8 km
>= 3000ft
5 / 8 km
1000 / 3000 ft
1500m / 5 km
500 / 1000 ft
800 / 1500m
200 / 500 ft
< 800m
< 200 ft
Simboli :   Temporali  Nebbia  Neve Forte  Precipitazioni Forti  Vento > 20 kt






- Altitudine del aeroporto : 83 ft


KBHB - Hancock County-Bar Harbor

ULTIMO METAR :
  • 230156Z AUTO 02012KT 7SM -RA OVC044 09/06 A2964 RMK AO2 SLP037 T00940056 PNO $

METARs OBSOLETI :
  • 230056Z AUTO 03015G22KT 4SM RA OVC055 11/04 A2967 RMK AO2 RAB50 SLP049 P0000 T01110039
  • 222356Z AUTO 02014G21KT 2 1/2SM HZ SCT060 14/M01 A2968 RMK AO2 VIS 1 1/2V4 SLP053 60000 T01391006 10150 20139 55016

TAF KBHB
Valido dal 23 a 00 ore il 24 a 00 ore UTC


222320Z 2300/2324 01015G25KT P6SM BKN090 OVC120 WS020/03055KT
FM230500 35017G32KT P6SM VCSH OVC050 WS020/01050KT
FM231000 33015G24KT P6SM SCT040 OVC150 WS020/35045KT
FM231300 33018G28KT P6SM BKN200
FIR KZBW / America del Nord



MetMap, La meteo Aeronautica in un colpo d'occhio ! - Copyright ORBIFLY Dicembre 2007 - Disclaimer

ORBIFLY MET'MAP TEAM :

Programmazione e sviluppo : Alexandra Zaïnal
Concezione : Baudouin d'Aumeries
Aiuto per la programmazione : Marc-Olivier Méhu
Supporto tecnico e logistico : Manuel Goepfert
Aiuto per la traduzione : Arnaldo La Scala

Contatto : metmap@orbifly.com




FONTI E CREDITI :

   NOAA